createdAt,value
2019-02-05T00:03:04.844Z,101567.43
2019-02-05T00:08:33.302Z,101557.38
2019-02-05T00:13:56.130Z,101557.38
2019-02-05T00:19:31.599Z,101557.80
2019-02-05T00:25:34.292Z,101550.80
2019-02-05T00:31:05.225Z,101556.94
2019-02-05T00:36:35.748Z,101566.14
2019-02-05T00:42:08.814Z,101565.70
2019-02-05T00:47:14.626Z,101561.33
2019-02-05T00:52:20.943Z,101561.30
2019-02-05T00:57:32.934Z,101555.62
2019-02-05T01:02:40.989Z,101549.47
2019-02-05T01:07:50.875Z,101548.59
2019-02-05T01:12:57.639Z,101532.41
2019-02-05T01:18:07.292Z,101532.41
2019-02-05T01:23:15.582Z,101531.11
2019-02-05T01:28:48.996Z,101533.30
2019-02-05T01:33:56.138Z,101549.05
2019-02-05T01:45:51.357Z,101549.48
2019-02-05T01:51:07.113Z,101546.86
2019-02-05T01:56:41.101Z,101545.11
2019-02-05T02:02:09.744Z,101536.80
2019-02-05T02:08:01.496Z,101524.98
2019-02-05T02:13:53.410Z,101520.59
2019-02-05T02:20:09.193Z,101517.53
2019-02-05T02:25:42.101Z,101513.61
2019-02-05T02:37:16.709Z,101492.16
2019-02-05T02:43:01.054Z,101493.91
2019-02-05T02:48:10.710Z,101509.22
2019-02-05T02:53:33.500Z,101516.65
2019-02-05T02:58:45.101Z,101528.45
2019-02-05T03:03:53.788Z,101527.16
2019-02-05T03:09:15.108Z,101516.67
2019-02-05T03:14:46.222Z,101517.97
2019-02-05T03:32:25.512Z,101524.98
2019-02-05T03:38:41.896Z,101529.80
2019-02-05T04:03:36.210Z,101524.95
2019-02-05T04:09:22.927Z,101516.62
2019-02-05T04:14:56.870Z,101515.78
2019-02-05T04:20:49.669Z,101521.02
2019-02-05T04:26:33.669Z,101508.77
2019-02-05T04:32:23.232Z,101514.02
2019-02-05T04:44:31.452Z,101516.62
2019-02-05T04:50:04.391Z,101520.10
2019-02-05T04:56:15.160Z,101511.81
2019-02-05T05:01:46.362Z,101520.14
2019-02-05T05:07:33.595Z,101526.24
2019-02-05T05:12:35.959Z,101523.59
2019-02-05T05:17:37.957Z,101531.50
2019-02-05T05:22:40.352Z,101547.25
2019-02-05T05:27:42.767Z,101538.95
2019-02-05T05:32:44.774Z,101540.25
2019-02-05T05:37:49.067Z,101548.50
2019-02-05T05:42:51.104Z,101542.42
2019-02-05T05:47:53.117Z,101542.84
2019-02-05T05:52:55.270Z,101552.50
2019-02-05T05:57:57.722Z,101545.46
2019-02-05T06:02:59.764Z,101549.38
2019-02-05T06:08:01.789Z,101561.64
2019-02-05T06:13:06.579Z,101559.47
2019-02-05T06:18:08.767Z,101568.16
2019-02-05T06:23:11.797Z,101576.03
2019-02-05T06:28:13.920Z,101571.25
2019-02-05T06:33:16.980Z,101575.63
2019-02-05T06:38:22.156Z,101579.99
2019-02-05T06:43:24.459Z,101582.21
2019-02-05T06:48:26.620Z,101587.45
2019-02-05T06:53:28.852Z,101592.70
2019-02-05T06:58:31.059Z,101575.69
2019-02-05T07:03:33.534Z,101581.78
2019-02-05T07:08:35.709Z,101584.86
2019-02-05T07:13:42.013Z,101583.09
2019-02-05T07:18:44.374Z,101590.54
2019-02-05T07:23:47.708Z,101605.41
2019-02-05T07:28:58.168Z,101615.95
2019-02-05T07:33:53.806Z,101620.70
2019-02-05T07:38:55.914Z,101618.53
2019-02-05T07:43:58.695Z,101619.03
2019-02-05T07:49:02.945Z,101634.38
2019-02-05T07:54:05.157Z,101642.63
2019-02-05T07:59:10.276Z,101648.34
2019-02-05T08:04:12.954Z,101652.23
2019-02-05T08:09:17.182Z,101670.22
2019-02-05T08:14:21.667Z,101666.77
2019-02-05T08:19:23.759Z,101652.73
2019-02-05T08:24:25.834Z,101670.29
2019-02-05T08:29:28.336Z,101665.87
2019-02-05T08:34:30.505Z,101669.39
2019-02-05T08:39:32.627Z,101677.68
2019-02-05T08:44:35.922Z,101678.12
2019-02-05T08:49:38.070Z,101672.89
2019-02-05T08:54:40.250Z,101672.05
2019-02-05T08:59:42.328Z,101668.99
2019-02-05T09:04:47.451Z,101672.98
2019-02-05T09:09:49.891Z,101678.23
2019-02-05T09:14:52.135Z,101672.95
2019-02-05T09:19:54.534Z,101673.42
2019-02-05T09:24:57.121Z,101679.54
2019-02-05T09:30:00.245Z,101686.56
2019-02-05T09:35:03.207Z,101693.12
2019-02-05T09:40:10.879Z,101700.16
2019-02-05T09:45:13.567Z,101706.74
2019-02-05T09:50:16.121Z,101707.63
2019-02-05T09:55:20.266Z,101705.00
2019-02-05T10:00:25.612Z,101718.58
2019-02-05T10:05:29.744Z,101714.18
2019-02-05T10:10:31.936Z,101714.18
2019-02-05T10:15:35.136Z,101724.70
2019-02-05T10:20:37.564Z,101738.73
2019-02-05T10:25:39.803Z,101748.80
2019-02-05T10:30:44.324Z,101743.98
2019-02-05T10:35:46.455Z,101743.50
2019-02-05T10:40:48.610Z,101732.98
2019-02-05T10:45:50.823Z,101738.17
2019-02-05T10:50:53.106Z,101738.64
2019-02-05T10:55:55.375Z,101739.06
2019-02-05T11:00:57.568Z,101742.52
2019-02-05T11:05:59.851Z,101744.67
2019-02-05T11:11:02.014Z,101745.50
2019-02-05T11:16:07.897Z,101739.02
2019-02-05T11:21:10.140Z,101732.83
2019-02-05T11:26:12.321Z,101726.66
2019-02-05T11:31:14.420Z,101715.23
2019-02-05T11:36:16.707Z,101720.95
2019-02-05T11:41:18.880Z,101715.18
2019-02-05T11:46:24.328Z,101704.27
2019-02-05T11:51:26.423Z,101704.48
2019-02-05T11:56:28.502Z,101707.19
2019-02-05T12:01:39.011Z,101702.34
2019-02-05T12:06:42.323Z,101705.13
2019-02-05T12:11:47.053Z,101712.75
2019-02-05T12:16:49.209Z,101710.91
2019-02-05T12:21:51.360Z,101703.88
2019-02-05T12:26:56.376Z,101697.95
2019-02-05T12:31:58.490Z,101695.23
2019-02-05T12:37:00.601Z,101692.53
2019-02-05T12:42:02.942Z,101695.41
2019-02-05T12:47:05.046Z,101689.67
2019-02-05T12:52:09.365Z,101693.22
2019-02-05T12:57:12.811Z,101687.23
2019-02-05T13:02:14.998Z,101697.23
2019-02-05T13:07:17.119Z,101690.16
2019-02-05T13:12:19.828Z,101680.20
2019-02-05T13:17:23.672Z,101674.75
2019-02-05T13:22:25.935Z,101665.93
2019-02-05T13:27:28.049Z,101661.88
2019-02-05T13:32:30.465Z,101662.20
2019-02-05T13:37:32.581Z,101667.70
2019-02-05T13:42:34.847Z,101673.64
2019-02-05T13:47:36.901Z,101670.55
2019-02-05T13:52:39.025Z,101669.59
2019-02-05T13:57:43.903Z,101671.89
2019-02-05T14:02:47.308Z,101669.42
2019-02-05T14:07:49.354Z,101667.17
2019-02-05T14:12:51.476Z,101673.35
2019-02-05T14:17:53.631Z,101672.39
2019-02-05T14:22:57.444Z,101675.38
2019-02-05T14:27:59.550Z,101674.02
2019-02-05T14:33:01.601Z,101671.84
2019-02-05T14:38:08.165Z,101666.54
2019-02-05T14:43:10.297Z,101662.50
2019-02-05T14:48:12.682Z,101658.69
2019-02-05T14:53:15.713Z,101659.78
2019-02-05T14:58:18.075Z,101664.28
2019-02-05T15:03:20.156Z,101660.86
2019-02-05T15:08:22.244Z,101660.23
2019-02-05T15:13:24.696Z,101668.58
2019-02-05T15:18:27.033Z,101659.01
2019-02-05T15:23:29.097Z,101666.09
2019-02-05T15:28:31.267Z,101669.11
2019-02-05T15:34:02.514Z,101672.18
2019-02-05T15:39:11.576Z,101683.69
2019-02-05T15:44:13.715Z,101682.75
2019-02-05T15:49:15.835Z,101683.72
2019-02-05T15:54:17.968Z,101691.20
2019-02-05T15:59:22.353Z,101682.90
2019-02-05T16:04:26.438Z,101691.75
2019-02-05T16:09:31.185Z,101683.82
2019-02-05T16:14:33.365Z,101693.54
2019-02-05T16:19:35.448Z,101689.59
2019-02-05T16:24:37.531Z,101687.02
2019-02-05T16:29:40.407Z,101682.25
2019-02-05T16:34:42.593Z,101680.07
2019-02-05T16:39:44.906Z,101685.80
2019-02-05T16:44:47.067Z,101686.70
2019-02-05T16:49:51.845Z,101691.99
2019-02-05T16:54:56.603Z,101685.39
2019-02-05T17:00:00.226Z,101695.52
2019-02-05T17:05:03.129Z,101694.23
2019-02-05T17:10:08.365Z,101690.72
2019-02-05T17:15:11.716Z,101708.30
2019-02-05T17:20:19.797Z,101702.59
2019-02-05T17:25:23.011Z,101710.52
2019-02-05T17:30:31.636Z,101703.97
2019-02-05T17:35:35.453Z,101706.59
2019-02-05T17:40:38.043Z,101717.58
2019-02-05T17:45:40.721Z,101705.70
2019-02-05T17:50:42.891Z,101710.58
2019-02-05T17:55:48.762Z,101705.28
2019-02-05T18:00:56.394Z,101711.87
2019-02-05T18:06:27.472Z,101717.11
2019-02-05T18:12:11.189Z,101724.16
2019-02-05T18:17:13.495Z,101717.98
2019-02-05T18:22:26.747Z,101718.45
2019-02-05T18:28:10.766Z,101720.67
2019-02-05T18:33:41.743Z,101716.73
2019-02-05T18:44:58.621Z,101717.16
2019-02-05T18:50:04.398Z,101708.79
2019-02-05T18:55:11.757Z,101714.53
2019-02-05T19:00:20.823Z,101706.18
2019-02-05T19:05:26.194Z,101704.42
2019-02-05T19:10:29.033Z,101714.13
2019-02-05T19:15:32.906Z,101717.62
2019-02-05T19:20:35.277Z,101710.20
2019-02-05T19:25:46.843Z,101710.61
2019-02-05T19:30:50.037Z,101703.16
2019-02-05T19:35:52.182Z,101707.09
2019-02-05T19:40:57.512Z,101704.93
2019-02-05T19:46:17.030Z,101714.60
2019-02-05T19:51:19.292Z,101715.90
2019-02-05T19:56:37.676Z,101710.20
2019-02-05T20:01:32.360Z,101702.30
2019-02-05T20:06:35.182Z,101694.81
2019-02-05T20:11:38.772Z,101689.61
2019-02-05T20:16:41.731Z,101686.95
2019-02-05T20:21:44.132Z,101685.20
2019-02-05T20:26:47.708Z,101678.62
2019-02-05T20:31:50.140Z,101680.34
2019-02-05T20:36:52.170Z,101685.22
2019-02-05T20:41:54.270Z,101699.28
2019-02-05T20:47:00.207Z,101693.14
2019-02-05T20:52:13.789Z,101697.08
2019-02-05T20:57:41.007Z,101700.63
2019-02-05T21:03:01.657Z,101704.13
2019-02-05T21:08:12.063Z,101706.36
2019-02-05T21:13:14.148Z,101700.20
2019-02-05T21:18:25.945Z,101702.41
2019-02-05T21:23:51.081Z,101692.72
2019-02-05T21:29:09.562Z,101695.38
2019-02-05T21:34:25.895Z,101698.91
2019-02-05T21:39:41.433Z,101694.51
2019-02-05T21:45:21.010Z,101693.21
2019-02-05T21:50:36.388Z,101697.16
2019-02-05T21:55:48.875Z,101685.80
2019-02-05T22:01:06.382Z,101688.42
2019-02-05T22:06:27.735Z,101687.11
2019-02-05T22:11:51.280Z,101679.19
2019-02-05T22:17:03.430Z,101687.11
2019-02-05T22:22:19.839Z,101679.20
2019-02-05T22:27:37.579Z,101670.87
2019-02-05T22:32:53.430Z,101661.30
2019-02-05T22:38:12.443Z,101661.36
2019-02-05T22:43:32.633Z,101665.34
2019-02-05T22:49:12.009Z,101661.42
2019-02-05T22:54:33.545Z,101664.11
2019-02-05T22:59:44.832Z,101657.98
2019-02-05T23:05:35.134Z,101680.39
2019-02-05T23:11:09.310Z,101672.50
2019-02-05T23:16:25.264Z,101669.43
2019-02-05T23:21:41.416Z,101671.64
2019-02-05T23:27:12.967Z,101671.22
2019-02-05T23:32:48.026Z,101677.36
2019-02-05T23:38:14.947Z,101671.69
2019-02-05T23:43:35.706Z,101674.31
2019-02-05T23:48:54.114Z,101676.94
2019-02-05T23:54:06.118Z,101672.56
2019-02-05T23:59:33.648Z,101677.83
